Time;durP1;ratioP1;P1;durP2;ratioP2;P2;SDS_P1;SDS_P2;PMS_P1;PMS_P2;Temp;Humidity;BMP_temperature;BMP_pressure;BME280_temperature;BME280_humidity;BME280_pressure;Samples;Min_cycle;Max_cycle;Signal;HPM_P1;HPM_P2
2022/03/05 00:02:07;;;;;;;;;;;;;;;0.63;100.00;100108.56;1690534;85;21028;-63
2022/03/05 00:04:52;;;;;;;19.02;11.57;;;;;;;0.65;100.00;100102.66;1660668;86;20112;-64
2022/03/05 00:07:37;;;;;;;19.57;12.35;;;;;;;0.60;100.00;100110.27;1659030;86;21155;-65
2022/03/05 00:10:23;;;;;;;20.05;12.65;;;;;;;0.56;100.00;100103.56;1652541;86;21032;-63
2022/03/05 00:13:08;;;;;;;20.85;12.85;;;;;;;0.61;100.00;100113.67;1659107;86;21048;-64
2022/03/05 00:15:53;;;;;;;22.13;12.82;;;;;;;0.58;100.00;100104.38;1658842;85;21095;-64
2022/03/05 00:18:38;;;;;;;20.82;12.60;;;;;;;0.63;100.00;100102.23;1659100;86;21036;-64
2022/03/05 00:21:23;;;;;;;21.60;13.18;;;;;;;0.64;100.00;100103.92;1659233;86;21123;-63
2022/03/05 00:24:08;;;;;;;18.73;12.00;;;;;;;0.60;100.00;100096.34;1658998;86;21040;-63
2022/03/05 00:26:53;;;;;;;19.48;12.37;;;;;;;0.56;100.00;100095.96;1658902;86;21079;-64
2022/03/05 00:29:38;;;;;;;21.62;13.45;;;;;;;0.58;100.00;100098.05;1658730;86;21052;-65
2022/03/05 00:32:23;;;;;;;20.95;12.78;;;;;;;0.56;100.00;100093.42;1658883;86;21091;-64
2022/03/05 00:35:10;;;;;;;21.80;12.63;;;;;;;0.53;100.00;100098.54;1658943;86;21617;-65
2022/03/05 00:37:56;;;;;;;23.45;13.32;;;;;;;0.55;100.00;100099.80;1658837;86;21048;-64
2022/03/05 00:40:41;;;;;;;20.72;12.33;;;;;;;0.52;100.00;100096.84;1658995;86;21110;-64
2022/03/05 00:43:26;;;;;;;21.02;12.37;;;;;;;0.57;100.00;100095.13;1672417;85;21566;-64
2022/03/05 00:46:10;;;;;;;;;;;;;;;0.62;100.00;100106.90;1661335;85;21147;-63
2022/03/05 00:48:55;;;;;;;21.45;13.30;;;;;;;0.57;100.00;100100.19;1660638;85;20136;-63
2022/03/05 00:51:40;;;;;;;22.15;13.08;;;;;;;0.56;100.00;100098.49;1658857;86;21044;-64
2022/03/05 00:54:25;;;;;;;21.37;13.48;;;;;;;0.49;100.00;100099.86;1659052;85;21548;-64
2022/03/05 00:57:10;;;;;;;21.07;12.63;;;;;;;0.46;100.00;100104.50;1658989;86;21617;-64
2022/03/05 00:59:56;;;;;;;19.48;12.78;;;;;;;0.53;100.00;100098.97;1659086;85;21520;-65
2022/03/05 01:02:41;;;;;;;21.48;12.68;;;;;;;0.47;100.00;100101.13;1658880;86;21028;-64
2022/03/05 01:05:10;;;;;;;22.00;13.80;;;;;;;0.45;100.00;100104.11;1659125;85;21630;-66
2022/03/05 01:07:38;;;;;;;21.37;12.95;;;;;;;0.51;100.00;100106.58;1664070;85;21028;-63
2022/03/05 01:10:06;;;;;;;21.23;12.93;;;;;;;0.45;100.00;100102.00;1716866;83;21051;-64
2022/03/05 01:12:35;;;;;;;18.55;12.05;;;;;;;0.51;100.00;100109.11;1688277;85;21093;-64
2022/03/05 01:15:05;;;;;;;20.57;12.78;;;;;;;0.46;100.00;100105.77;1686881;85;20967;-64
2022/03/05 01:17:32;;;;;;;20.70;13.05;;;;;;;0.47;100.00;100111.27;1716783;83;21019;-64
2022/03/05 01:19:59;;;;;;;19.07;12.45;;;;;;;0.49;100.00;100119.69;1688317;85;21034;-64
2022/03/05 01:22:26;;;;;;;21.30;13.25;;;;;;;0.43;100.00;100112.14;1686541;85;21046;-64
2022/03/05 01:24:53;;;;;;;20.65;12.63;;;;;;;0.46;100.00;100112.09;1716838;83;21000;-63
2022/03/05 01:27:22;;;;;;;20.23;13.10;;;;;;;0.43;100.00;100110.02;1687891;85;21149;-64
2022/03/05 01:29:50;;;;;;;20.30;12.35;;;;;;;0.47;100.00;100115.49;1667486;85;21531;-63
2022/03/05 01:32:17;;;;;;;20.77;12.23;;;;;;;0.41;100.00;100118.91;1722298;83;21086;-63
2022/03/05 01:34:44;;;;;;;19.70;12.78;;;;;;;0.43;100.00;100119.73;1693467;85;21476;-64
2022/03/05 01:37:11;;;;;;;20.30;12.35;;;;;;;0.44;100.00;100125.63;1666288;85;21053;-64
2022/03/05 01:39:38;;;;;;;21.23;12.50;;;;;;;0.32;100.00;100126.57;1722403;83;21015;-64
2022/03/05 01:42:06;;;;;;;24.67;13.35;;;;;;;0.32;100.00;100131.20;1693329;85;21079;-63
2022/03/05 01:44:33;;;;;;;21.87;13.05;;;;;;;0.25;100.00;100132.55;1692084;85;21043;-64
2022/03/05 01:47:05;;;;;;;21.02;13.03;;;;;;;0.29;100.00;100135.48;1722230;83;21098;-63
2022/03/05 01:49:33;;;;;;;22.80;12.82;;;;;;;0.21;100.00;100141.86;1693588;85;21035;-63
2022/03/05 01:52:00;;;;;;;21.48;13.38;;;;;;;0.16;100.00;100147.36;1666444;85;21059;-64
2022/03/05 01:54:28;;;;;;;22.73;13.85;;;;;;;0.17;100.00;100151.16;1722747;83;21075;-64
2022/03/05 01:56:56;;;;;;;20.72;12.65;;;;;;;0.17;100.00;100144.00;1667997;85;21047;-63
2022/03/05 01:59:23;;;;;;;19.30;12.03;;;;;;;0.19;100.00;100145.66;1692173;85;21078;-63
2022/03/05 02:01:50;;;;;;;21.17;12.68;;;;;;;0.22;100.00;100162.94;1696014;83;21023;-64
2022/03/05 02:04:17;;;;;;;21.75;13.65;;;;;;;0.22;100.00;100147.75;1668355;85;21511;-64
2022/03/05 02:06:44;;;;;;;20.50;13.00;;;;;;;0.20;100.00;100147.75;1691849;85;21046;-65
2022/03/05 02:09:11;;;;;;;20.40;12.60;;;;;;;0.15;100.00;100148.23;1722437;83;21539;-63
2022/03/05 02:11:38;;;;;;;22.13;13.15;;;;;;;0.14;100.00;100146.13;1693316;85;21024;-65
2022/03/05 02:14:05;;;;;;;22.25;13.50;;;;;;;0.17;100.00;100153.69;1692058;85;21083;-64
2022/03/05 02:16:33;;;;;;;22.40;13.10;;;;;;;0.13;100.00;100149.94;1722194;83;21071;-64
2022/03/05 02:19:00;;;;;;;22.02;12.88;;;;;;;0.05;100.00;100153.77;1693559;85;21043;-63
2022/03/05 02:21:28;;;;;;;20.88;12.85;;;;;;;0.09;100.00;100153.34;1691820;85;21050;-64
2022/03/05 02:23:56;;;;;;;22.45;12.65;;;;;;;0.09;100.00;100159.66;1695816;83;21063;-64
2022/03/05 02:26:23;;;;;;;23.83;13.25;;;;;;;0.15;100.00;100158.36;1693475;85;21515;-64
2022/03/05 02:28:51;;;;;;;18.80;11.73;;;;;;;0.17;100.00;100160.02;1691861;85;21103;-64
2022/03/05 02:31:18;;;;;;;21.40;12.30;;;;;;;0.14;100.00;100158.78;1688321;83;21060;-64
2022/03/05 02:33:46;;;;;;;20.32;12.68;;;;;;;0.23;100.00;100163.37;1668514;86;21082;-64
2022/03/05 02:36:12;;;;;;;22.73;12.90;;;;;;;0.09;100.00;100167.26;1668319;86;21531;-64
2022/03/05 02:38:40;;;;;;;19.75;12.55;;;;;;;0.10;100.00;100162.59;1656184;87;21083;-64
2022/03/05 02:41:07;;;;;;;21.45;12.63;;;;;;;0.05;100.00;100167.69;1663393;85;21070;-64
2022/03/05 02:43:34;;;;;;;20.20;12.33;;;;;;;0.11;100.00;100174.41;1663419;86;21578;-64
2022/03/05 02:46:03;;;;;;;22.75;12.82;;;;;;;0.04;100.00;100176.55;1663227;86;21094;-65
2022/03/05 02:48:30;;;;;;;21.70;12.82;;;;;;;0.06;100.00;100176.12;1663303;86;21087;-64
2022/03/05 02:50:57;;;;;;;19.52;11.78;;;;;;;0.16;100.00;100173.54;1663557;86;21019;-65
2022/03/05 02:53:23;;;;;;;19.73;11.78;;;;;;;0.14;100.00;100171.84;1663521;86;21070;-64
2022/03/05 02:55:50;;;;;;;18.75;12.33;;;;;;;0.10;100.00;100176.52;1663396;86;21095;-64
2022/03/05 02:58:17;;;;;;;18.80;11.50;;;;;;;-0.01;100.00;100179.13;1663544;86;21062;-64
2022/03/05 03:00:43;;;;;;;19.60;11.68;;;;;;;0.07;100.00;100175.28;1663627;86;21042;-65
2022/03/05 03:03:12;;;;;;;18.00;11.50;;;;;;;0.10;100.00;100174.84;1663347;86;21023;-64
2022/03/05 03:05:39;;;;;;;20.88;12.37;;;;;;;-0.05;100.00;100182.09;1663420;86;21078;-64
2022/03/05 03:08:07;;;;;;;19.82;11.80;;;;;;;-0.01;100.00;100176.16;1663213;86;21043;-64
2022/03/05 03:10:34;;;;;;;20.45;11.97;;;;;;;0.02;100.00;100183.31;1663505;86;21022;-64
2022/03/05 03:13:01;;;;;;;18.32;11.73;;;;;;;0.04;100.00;100174.02;1663356;86;21053;-64
2022/03/05 03:15:28;;;;;;;18.98;11.28;;;;;;;-0.02;100.00;100190.94;1663478;86;21086;-64
2022/03/05 03:17:55;;;;;;;19.75;11.45;;;;;;;-0.01;100.00;100181.65;1663371;86;21047;-64
2022/03/05 03:20:27;;;;;;;20.17;11.83;;;;;;;0.04;100.00;100186.27;1663436;86;21011;-64
2022/03/05 03:22:57;;;;;;;17.95;10.78;;;;;;;0.08;100.00;100176.95;1663420;86;21551;-63
2022/03/05 03:25:24;;;;;;;18.40;11.35;;;;;;;0.03;100.00;100190.91;1644362;86;21051;-63
2022/03/05 03:27:53;;;;;;;17.60;10.32;;;;;;;0.06;100.00;100189.64;1644530;86;21118;-64
2022/03/05 03:30:20;;;;;;;19.75;11.68;;;;;;;0.08;100.00;100187.94;1670141;84;21532;-63
2022/03/05 03:32:48;;;;;;;20.32;10.65;;;;;;;0.04;100.00;100193.00;1682426;85;21039;-63
2022/03/05 03:35:16;;;;;;;17.32;10.78;;;;;;;0.07;100.00;100194.27;1659914;86;21131;-64
2022/03/05 03:37:45;;;;;;;17.95;11.03;;;;;;;-0.01;100.00;100195.13;1686639;85;21031;-65
2022/03/05 03:40:14;;;;;;;18.42;11.03;;;;;;;0.15;100.00;100197.59;1660324;86;21040;-63
2022/03/05 03:42:42;;;;;;;17.87;10.80;;;;;;;0.12;100.00;100199.72;1686747;84;21059;-63
2022/03/05 03:45:10;;;;;;;20.52;12.20;;;;;;;0.04;100.00;100196.39;1660049;86;21142;-65
2022/03/05 03:47:38;;;;;;;19.40;11.22;;;;;;;0.07;100.00;100200.59;1687042;85;21035;-63
2022/03/05 03:50:08;;;;;;;17.07;10.88;;;;;;;0.05;100.00;100201.02;1660135;86;21056;-64
2022/03/05 03:52:35;;;;;;;18.55;11.33;;;;;;;0.07;100.00;100203.13;1686887;85;21043;-63
2022/03/05 03:55:07;;;;;;;19.23;10.60;;;;;;;-0.07;100.00;100204.46;1660143;86;21028;-64
2022/03/05 03:57:35;;;;;;;16.97;10.28;;;;;;;0.05;100.00;100200.59;1686988;85;21050;-63
2022/03/05 04:00:05;;;;;;;17.27;10.50;;;;;;;-0.03;100.00;100204.86;1686717;84;21003;-64
2022/03/05 04:02:34;;;;;;;17.20;10.43;;;;;;;-0.04;100.00;100204.42;1659611;86;21614;-64
2022/03/05 04:05:01;;;;;;;18.48;11.20;;;;;;;-0.02;100.00;100206.52;1686580;85;21043;-63
2022/03/05 04:10:16;;;;;;;20.52;11.25;;;;;;;-0.09;100.00;100208.25;1686452;85;21050;-65
2022/03/05 04:12:43;;;;;;;17.80;9.98;;;;;;;-0.05;100.00;100206.55;1659833;86;21024;-63
2022/03/05 04:15:11;;;;;;;18.12;10.80;;;;;;;-0.11;100.00;100214.18;1686705;85;21043;-64
2022/03/05 04:17:39;;;;;;;15.90;9.98;;;;;;;-0.11;100.00;100208.69;1648698;86;21084;-64
2022/03/05 04:20:09;;;;;;;15.40;9.90;;;;;;;-0.11;100.00;100211.22;1649107;86;21066;-63
2022/03/05 04:22:36;;;;;;;18.27;10.68;;;;;;;-0.18;100.00;100203.27;1660771;86;21124;-64
2022/03/05 04:25:03;;;;;;;19.67;11.15;;;;;;;-0.12;100.00;100203.23;1671385;85;21082;-64
2022/03/05 04:27:32;;;;;;;17.87;11.18;;;;;;;-0.13;100.00;100198.17;1672847;85;20997;-63
2022/03/05 04:29:59;;;;;;;20.10;11.28;;;;;;;-0.17;100.00;100196.07;1670188;84;21060;-65
2022/03/05 04:32:26;;;;;;;17.20;10.05;;;;;;;-0.11;100.00;100194.77;1669648;84;21043;-65
2022/03/05 04:34:53;;;;;;;18.23;10.38;;;;;;;-0.11;100.00;100195.20;1673034;84;21564;-64
2022/03/05 04:37:19;;;;;;;18.60;10.10;;;;;;;-0.21;100.00;100195.23;1668422;85;21067;-64
2022/03/05 04:39:46;;;;;;;17.20;10.58;;;;;;;-0.27;100.00;100194.44;1668944;86;21608;-66
2022/03/05 04:42:13;;;;;;;19.35;10.72;;;;;;;-0.22;100.00;100197.80;1668584;85;21091;-68
2022/03/05 04:44:40;;;;;;;20.85;11.50;;;;;;;-0.22;100.00;100201.16;1649339;85;21536;-65
2022/03/05 04:47:07;;;;;;;22.35;11.85;;;;;;;-0.34;100.00;100199.95;1673100;84;21027;-66
2022/03/05 04:49:33;;;;;;;18.48;11.35;;;;;;;-0.40;100.00;100202.52;1673336;84;21038;-66
2022/03/05 04:52:01;;;;;;;19.15;11.03;;;;;;;-0.38;100.00;100197.45;1668723;86;21114;-64
2022/03/05 04:54:30;;;;;;;18.73;10.40;;;;;;;-0.36;100.00;100194.50;1668729;86;21059;-65
2022/03/05 04:56:57;;;;;;;17.85;10.32;;;;;;;-0.46;100.00;100191.16;1668898;86;21159;-63
2022/03/05 04:59:24;;;;;;;19.92;10.98;;;;;;;-0.44;100.00;100203.37;1668994;86;21055;-63
2022/03/05 05:01:52;;;;;;;18.85;11.05;;;;;;;-0.44;100.00;100191.56;1649895;86;21070;-64
2022/03/05 05:04:19;;;;;;;19.75;11.12;;;;;;;-0.41;100.00;100198.28;1650063;86;21082;-64
2022/03/05 05:06:46;;;;;;;19.80;11.03;;;;;;;-0.35;100.00;100199.95;1668948;86;21094;-63
2022/03/05 05:09:15;;;;;;;17.52;10.25;;;;;;;-0.34;100.00;100202.48;1668680;86;21062;-65
2022/03/05 05:11:42;;;;;;;20.23;10.85;;;;;;;-0.40;100.00;100199.98;1669039;86;20987;-63
2022/03/05 05:14:15;;;;;;;18.40;10.85;;;;;;;-0.17;100.00;100205.36;1668672;86;21141;-63
2022/03/05 05:16:39;;;;;;;18.35;10.75;;;;;;;-0.23;100.00;100213.81;1668444;85;21082;-64
2022/03/05 05:19:24;;;;;;;18.65;10.13;;;;;;;-0.25;100.00;100219.30;1668773;85;21141;-64
2022/03/05 05:22:04;;;;;;;19.67;10.93;;;;;;;-0.23;100.00;100224.77;1669045;85;21121;-63
2022/03/05 05:24:34;;;;;;;20.80;11.25;;;;;;;-0.15;100.00;100226.43;1668793;86;21110;-64
2022/03/05 05:27:02;;;;;;;19.87;10.72;;;;;;;-0.16;100.00;100232.32;1669038;85;21046;-64
2022/03/05 05:29:30;;;;;;;19.87;11.93;;;;;;;-0.12;100.00;100231.06;1649573;86;21070;-64
2022/03/05 05:31:57;;;;;;;18.87;10.82;;;;;;;-0.09;100.00;100236.09;1669610;84;21547;-64
2022/03/05 05:34:24;;;;;;;19.80;11.00;;;;;;;-0.03;100.00;100241.55;1674298;84;20999;-63
2022/03/05 05:36:51;;;;;;;19.20;10.93;;;;;;;-0.01;100.00;100241.11;1704158;84;21058;-64
2022/03/05 05:39:19;;;;;;;17.17;9.50;;;;;;;-0.03;100.00;100249.97;1704184;84;21353;-65
2022/03/05 05:41:46;;;;;;;15.45;9.25;;;;;;;-0.17;100.00;100264.81;1704019;83;21110;-64
2022/03/05 05:44:12;;;;;;;15.38;9.45;;;;;;;-0.14;100.00;100259.31;1699178;84;20946;-64
2022/03/05 05:46:41;;;;;;;16.32;9.18;;;;;;;-0.13;100.00;100265.21;1696040;84;21023;-64
2022/03/05 05:49:09;;;;;;;16.52;9.23;;;;;;;-0.05;100.00;100274.87;1703861;84;20971;-63
2022/03/05 05:51:37;;;;;;;16.37;9.93;;;;;;;-0.11;100.00;100278.70;1696328;84;20991;-63
2022/03/05 05:54:05;;;;;;;17.37;10.15;;;;;;;-0.17;100.00;100281.25;1692208;84;21122;-68
2022/03/05 05:56:34;;;;;;;14.38;8.50;;;;;;;-0.10;100.00;100281.23;1700454;84;21549;-63
2022/03/05 05:59:01;;;;;;;17.23;8.90;;;;;;;-0.10;100.00;100285.42;1666362;84;21079;-63
2022/03/05 06:01:28;;;;;;;15.55;8.90;;;;;;;-0.07;100.00;100284.16;1703523;84;21462;-64
2022/03/05 06:03:55;;;;;;;16.07;9.38;;;;;;;0.16;100.00;100286.17;1696857;84;21031;-64
2022/03/05 06:06:23;;;;;;;13.98;8.58;;;;;;;-0.11;100.00;100294.71;1696002;83;21070;-64
2022/03/05 06:08:51;;;;;;;15.32;9.23;;;;;;;0.08;100.00;100295.89;1695906;84;21013;-65
2022/03/05 06:11:19;;;;;;;15.20;8.93;;;;;;;0.12;100.00;100300.95;1697269;84;21002;-64
2022/03/05 06:13:47;;;;;;;16.62;9.35;;;;;;;0.11;100.00;100303.05;1691578;84;21034;-63
2022/03/05 06:16:15;;;;;;;15.95;9.58;;;;;;;0.10;100.00;100302.66;1674681;84;21022;-65
2022/03/05 06:18:43;;;;;;;14.10;8.75;;;;;;;0.23;100.00;100300.06;1703859;84;21041;-64
2022/03/05 06:21:10;;;;;;;16.67;9.18;;;;;;;0.25;100.00;100313.12;1696174;84;21070;-64
2022/03/05 06:23:37;;;;;;;15.03;9.03;;;;;;;0.26;100.00;100310.16;1699675;84;21284;-66
2022/03/05 06:26:05;;;;;;;12.13;7.62;;;;;;;0.19;100.00;100305.13;1640895;84;21535;-64
2022/03/05 06:28:33;;;;;;;15.38;9.10;;;;;;;0.23;100.00;100311.45;1703673;84;21037;-63
2022/03/05 06:31:01;;;;;;;14.23;8.20;;;;;;;0.21;100.00;100305.56;1696870;84;21035;-64
2022/03/05 06:33:28;;;;;;;17.10;9.25;;;;;;;0.27;100.00;100308.06;1678280;84;20986;-64
2022/03/05 06:35:55;;;;;;;16.12;9.10;;;;;;;0.34;100.00;100312.22;1679788;84;21053;-65
2022/03/05 06:38:22;;;;;;;16.17;9.45;;;;;;;0.35;100.00;100315.19;1677739;84;21085;-64
2022/03/05 06:40:51;;;;;;;17.42;9.18;;;;;;;0.31;100.00;100316.05;1673362;84;21524;-66
2022/03/05 06:43:19;;;;;;;16.65;8.83;;;;;;;0.47;100.00;100308.79;1682289;84;21055;-64
2022/03/05 06:45:46;;;;;;;14.78;9.20;;;;;;;0.30;100.00;100316.45;1668753;86;20992;-64
2022/03/05 06:48:13;;;;;;;14.18;8.45;;;;;;;0.24;100.00;100312.69;1673289;84;21043;-63
2022/03/05 06:50:40;;;;;;;14.75;8.85;;;;;;;0.46;100.00;100315.95;1668885;84;20987;-66
2022/03/05 06:53:06;;;;;;;17.12;8.15;;;;;;;0.36;100.00;100316.42;1668834;86;21086;-64
2022/03/05 06:55:33;;;;;;;15.63;8.73;;;;;;;0.44;100.00;100315.13;1668715;84;21062;-64
2022/03/05 06:58:00;;;;;;;13.25;8.25;;;;;;;0.44;100.00;100319.35;1668873;86;21082;-64
2022/03/05 07:00:27;;;;;;;13.80;7.70;;;;;;;0.42;100.00;100318.09;1669035;85;21019;-64
2022/03/05 07:02:54;;;;;;;13.95;7.87;;;;;;;0.47;100.00;100323.98;1649351;86;21039;-64
2022/03/05 07:05:22;;;;;;;12.73;8.20;;;;;;;0.38;100.00;100327.81;1649430;86;21031;-64
2022/03/05 07:07:49;;;;;;;15.13;8.10;;;;;;;0.34;100.00;100320.66;1687064;84;21037;-63
2022/03/05 07:10:15;;;;;;;12.10;7.90;;;;;;;0.52;100.00;100320.98;1702315;84;21046;-63
2022/03/05 07:12:45;;;;;;;16.00;8.90;;;;;;;0.62;100.00;100319.67;1702209;84;21509;-63
2022/03/05 07:15:12;;;;;;;12.98;7.83;;;;;;;0.64;100.00;100324.30;1702272;84;20978;-62
2022/03/05 07:17:49;;;;;;;13.70;8.30;;;;;;;0.46;100.00;100328.61;1702091;84;21054;-65
2022/03/05 07:20:16;;;;;;;16.17;8.65;;;;;;;0.56;100.00;100321.38;1702277;83;21029;-64
2022/03/05 07:22:44;;;;;;;14.95;8.98;;;;;;;0.65;100.00;100325.56;1702373;84;21084;-64
2022/03/05 07:25:11;;;;;;;12.33;7.92;;;;;;;0.77;100.00;100324.22;1692771;84;21080;-64
2022/03/05 07:27:39;;;;;;;15.80;8.93;;;;;;;0.92;100.00;100318.19;1702379;84;21025;-64
2022/03/05 07:30:08;;;;;;;17.05;9.68;;;;;;;0.71;100.00;100323.39;1702169;83;21083;-64
2022/03/05 07:32:36;;;;;;;13.03;7.85;;;;;;;0.69;100.00;100320.03;1692151;84;21111;-64
2022/03/05 07:35:05;;;;;;;13.53;7.47;;;;;;;0.85;100.00;100320.77;1694244;84;21041;-65
2022/03/05 07:37:32;;;;;;;13.22;8.18;;;;;;;0.64;100.00;100326.84;1692085;84;20996;-65
2022/03/05 07:40:00;;;;;;;14.53;7.97;;;;;;;0.69;100.00;100323.43;1698394;84;21118;-67
2022/03/05 07:42:27;;;;;;;15.43;8.15;;;;;;;1.03;100.00;100324.43;1692374;83;21091;-64
2022/03/05 07:44:54;;;;;;;13.68;8.53;;;;;;;0.91;100.00;100335.53;1697050;84;21391;-65
2022/03/05 07:47:20;;;;;;;14.63;7.80;;;;;;;0.89;100.00;100341.03;1694683;84;21043;-65
2022/03/05 07:49:47;;;;;;;15.05;9.05;;;;;;;0.69;100.00;100342.83;1701101;84;21704;-65
2022/03/05 07:52:13;;;;;;;15.03;7.72;;;;;;;0.88;100.00;100341.87;1700808;84;20998;-66
2022/03/05 07:54:40;;;;;;;14.00;8.30;;;;;;;0.79;100.00;100338.12;1700838;84;21054;-65
2022/03/05 07:57:07;;;;;;;12.33;7.72;;;;;;;0.95;100.00;100336.32;1681477;84;21038;-63
2022/03/05 07:59:34;;;;;;;12.37;7.47;;;;;;;0.79;100.00;100338.12;1700740;84;21545;-65
2022/03/05 08:02:01;;;;;;;15.20;8.45;;;;;;;0.94;100.00;100341.83;1700274;84;21045;-66
2022/03/05 08:04:28;;;;;;;15.65;8.85;;;;;;;0.81;100.00;100341.48;1700648;84;21476;-64
2022/03/05 08:06:54;;;;;;;13.30;7.87;;;;;;;0.81;100.00;100331.34;1700698;84;21122;-65
2022/03/05 08:09:21;;;;;;;11.97;8.43;;;;;;;0.91;100.00;100338.06;1701040;84;21058;-66
2022/03/05 08:11:49;;;;;;;11.38;7.17;;;;;;;0.84;100.00;100338.11;1700640;84;21090;-65
2022/03/05 08:14:17;;;;;;;12.73;8.03;;;;;;;0.80;100.00;100337.28;1700698;84;21131;-64
2022/03/05 08:16:43;;;;;;;14.03;8.05;;;;;;;0.79;100.00;100333.05;1701026;84;21031;-64
2022/03/05 08:19:10;;;;;;;11.95;7.42;;;;;;;0.82;100.00;100343.18;1680971;84;21052;-64
2022/03/05 08:21:37;;;;;;;14.20;8.10;;;;;;;0.84;100.00;100349.08;1680859;84;21067;-64
2022/03/05 08:24:05;;;;;;;13.00;7.42;;;;;;;0.79;100.00;100351.66;1700575;84;21047;-64
2022/03/05 08:26:32;;;;;;;11.78;7.58;;;;;;;0.87;100.00;100346.94;1701025;84;21047;-65
2022/03/05 08:28:58;;;;;;;14.70;7.97;;;;;;;0.90;100.00;100354.10;1701057;84;21157;-64
2022/03/05 08:31:25;;;;;;;13.62;8.00;;;;;;;1.10;100.00;100350.59;1700950;84;21099;-65
2022/03/05 08:33:52;;;;;;;14.07;8.73;;;;;;;0.96;100.00;100354.06;1700648;84;21087;-65
2022/03/05 08:36:19;;;;;;;13.50;8.35;;;;;;;1.07;100.00;100364.11;1721084;83;21432;-67
2022/03/05 08:38:45;;;;;;;14.10;8.90;;;;;;;0.92;100.00;100368.87;1692257;84;21587;-64
2022/03/05 08:41:12;;;;;;;14.87;9.30;;;;;;;1.00;100.00;100360.78;1718664;82;21070;-65
2022/03/05 08:43:39;;;;;;;14.33;9.20;;;;;;;1.04;100.00;100367.12;1718996;83;21070;-67
2022/03/05 08:46:07;;;;;;;12.45;8.08;;;;;;;1.03;100.00;100375.13;1688753;85;21051;-64
2022/03/05 08:48:33;;;;;;;14.45;7.90;;;;;;;1.08;100.00;100373.84;1718682;83;21054;-64
2022/03/05 08:51:00;;;;;;;13.10;7.92;;;;;;;0.88;100.00;100377.34;1688497;85;21071;-64
2022/03/05 08:53:27;;;;;;;13.00;7.83;;;;;;;1.00;100.00;100382.33;1718862;83;21530;-64
2022/03/05 08:55:54;;;;;;;12.82;8.08;;;;;;;0.90;100.00;100381.14;1688735;85;22274;-65
2022/03/05 08:58:21;;;;;;;15.50;8.60;;;;;;;1.03;100.00;100383.16;1718495;83;21018;-64
2022/03/05 09:00:50;;;;;;;17.10;8.68;;;;;;;1.07;100.00;100384.83;1688546;85;21094;-64
2022/03/05 09:03:17;;;;;;;13.62;8.20;;;;;;;0.76;100.00;100382.49;1718963;83;21074;-65
2022/03/05 09:05:46;;;;;;;19.70;9.63;;;;;;;0.83;100.00;100385.39;1688851;84;21066;-64
2022/03/05 09:08:14;;;;;;;21.25;10.63;;;;;;;1.03;100.00;100384.43;1718857;83;21094;-73
2022/03/05 09:10:44;;;;;;;16.48;9.43;;;;;;;1.02;100.00;100389.10;1688672;84;21118;-65
2022/03/05 09:13:12;;;;;;;18.10;10.20;;;;;;;1.00;100.00;100396.70;1718924;83;21043;-64
2022/03/05 09:15:39;;;;;;;15.93;9.65;;;;;;;0.84;100.00;100391.32;1688392;84;21056;-67
2022/03/05 09:18:06;;;;;;;18.50;9.40;;;;;;;0.88;100.00;100389.19;1718980;83;21027;-65
2022/03/05 09:20:35;;;;;;;17.82;9.50;;;;;;;0.88;100.00;100389.19;1688322;84;21531;-66
2022/03/05 09:23:01;;;;;;;14.70;8.38;;;;;;;1.12;100.00;100403.39;1702703;83;21065;-65
2022/03/05 09:25:28;;;;;;;19.00;9.75;;;;;;;1.06;100.00;100399.20;1688581;84;21107;-66
2022/03/05 09:27:55;;;;;;;14.53;8.73;;;;;;;1.14;100.00;100397.88;1702643;83;21026;-65
2022/03/05 09:30:22;;;;;;;15.68;9.03;;;;;;;1.16;100.00;100399.55;1688221;84;21626;-65
2022/03/05 09:32:49;;;;;;;16.45;8.98;;;;;;;0.97;100.00;100400.11;1698619;83;21096;-65
2022/03/05 09:35:15;;;;;;;15.23;8.53;;;;;;;1.01;100.00;100397.11;1679683;85;21056;-64
2022/03/05 09:37:42;;;;;;;18.50;9.53;;;;;;;1.09;100.00;100394.53;1665832;85;21013;-64
2022/03/05 09:40:11;;;;;;;16.20;9.40;;;;;;;1.35;100.00;100392.63;1679583;85;21587;-65
2022/03/05 09:42:44;;;;;;;15.75;9.78;;;;;;;1.27;100.00;100395.66;1666168;85;21096;-65
2022/03/05 09:45:14;;;;;;;15.05;9.13;;;;;;;1.39;100.00;100394.29;1680053;85;21067;-65
2022/03/05 09:47:45;;;;;;;15.40;9.13;;;;;;;1.20;100.00;100404.18;1691531;85;21032;-65
2022/03/05 09:50:13;;;;;;;11.73;7.72;;;;;;;1.28;100.00;100399.02;1679562;85;21095;-73
2022/03/05 09:52:40;;;;;;;14.85;8.85;;;;;;;1.26;100.00;100405.40;1691496;85;21012;-65
2022/03/05 09:55:08;;;;;;;16.97;9.60;;;;;;;1.33;100.00;100412.09;1679621;85;21028;-64
2022/03/05 09:57:36;;;;;;;16.30;9.43;;;;;;;1.32;100.00;100401.55;1691613;85;21093;-68
2022/03/05 10:00:05;;;;;;;16.85;9.30;;;;;;;1.18;100.00;100410.52;1679774;85;21076;-64
2022/03/05 10:02:33;;;;;;;16.48;9.68;;;;;;;1.38;100.00;100406.57;1691411;85;21022;-63
2022/03/05 10:05:31;;;;;;;15.00;8.90;;;;;;;1.28;100.00;100411.70;1679829;85;21107;-64
2022/03/05 10:08:12;;;;;;;15.50;9.13;;;;;;;1.17;100.00;100406.72;1691549;85;21052;-68
2022/03/05 10:10:55;;;;;;;14.65;8.73;;;;;;;1.20;100.00;100409.25;1671796;86;21080;-66
2022/03/05 10:13:31;;;;;;;15.00;9.37;;;;;;;1.23;100.00;100411.75;1691661;85;21033;-65
2022/03/05 10:16:04;;;;;;;14.53;9.03;;;;;;;1.37;100.00;100408.67;1691413;85;21033;-67
2022/03/05 10:18:38;;;;;;;15.48;9.23;;;;;;;1.24;100.00;100410.91;1666482;85;21056;-66
2022/03/05 10:21:09;;;;;;;15.78;9.63;;;;;;;1.29;100.00;100408.33;1691565;85;21012;-68
2022/03/05 10:23:42;;;;;;;16.87;9.75;;;;;;;1.26;100.00;100415.55;1691678;85;21532;-66
2022/03/05 10:26:10;;;;;;;14.85;9.05;;;;;;;1.49;100.00;100403.10;1691742;85;21056;-67
2022/03/05 10:28:39;;;;;;;13.08;8.98;;;;;;;1.36;100.00;100412.52;1691691;85;21016;-67
2022/03/05 10:31:13;;;;;;;13.00;8.23;;;;;;;1.50;100.00;100413.65;1691438;83;21104;-68
2022/03/05 10:33:43;;;;;;;13.43;8.33;;;;;;;1.28;100.00;100416.37;1660482;85;21096;-66
2022/03/05 10:36:24;;;;;;;12.88;8.28;;;;;;;1.19;100.00;100411.36;1657225;86;21015;-66
2022/03/05 10:38:59;;;;;;;11.95;7.75;;;;;;;1.35;100.00;100418.42;1657346;85;21099;-67
2022/03/05 10:41:36;;;;;;;13.83;8.50;;;;;;;1.31;100.00;100423.94;1656554;86;21111;-67
2022/03/05 10:44:15;;;;;;;15.03;8.50;;;;;;;1.35;100.00;100420.53;1657392;86;21028;-66
2022/03/05 10:46:58;;;;;;;15.30;9.10;;;;;;;1.40;100.00;100425.16;1657446;85;21543;-67
2022/03/05 10:49:36;;;;;;;13.58;8.25;;;;;;;1.47;100.00;100426.38;1657482;86;21062;-66
2022/03/05 10:52:08;;;;;;;13.13;8.43;;;;;;;1.54;100.00;100427.59;1657158;85;21075;-65
2022/03/05 10:54:40;;;;;;;13.70;7.95;;;;;;;1.77;100.00;100421.03;1657108;86;21095;-65
2022/03/05 10:57:13;;;;;;;14.05;8.70;;;;;;;1.90;100.00;100411.58;1657359;85;21098;-67
2022/03/05 10:59:46;;;;;;;13.08;8.28;;;;;;;1.90;100.00;100411.58;1657381;86;21532;-67
2022/03/05 11:02:16;;;;;;;14.38;8.28;;;;;;;2.02;100.00;100418.23;1657341;85;21107;-66
2022/03/05 11:04:43;;;;;;;13.58;8.60;;;;;;;2.06;100.00;100429.22;1657245;86;21608;-66
2022/03/05 11:07:13;;;;;;;15.63;9.40;;;;;;;2.14;100.00;100424.89;1657134;87;21410;-66
2022/03/05 11:09:44;;;;;;;12.15;7.35;;;;;;;2.18;100.00;100426.54;1657108;85;21095;-68
2022/03/05 11:12:20;;;;;;;11.78;7.53;;;;;;;1.98;100.00;100431.39;1657260;85;21019;-65
2022/03/05 11:14:51;;;;;;;13.28;8.03;;;;;;;1.75;100.00;100430.78;1656857;85;21138;-65
2022/03/05 11:17:20;;;;;;;11.18;7.33;;;;;;;1.75;100.00;100429.08;1657059;86;21063;-66
2022/03/05 11:19:49;;;;;;;12.18;7.60;;;;;;;1.54;100.00;100441.54;1657433;85;21008;-65
2022/03/05 11:22:17;;;;;;;12.33;8.35;;;;;;;1.26;100.00;100429.48;1657202;86;21554;-66
2022/03/05 11:24:45;;;;;;;12.25;7.70;;;;;;;1.55;100.00;100438.56;1640166;86;21143;-65
2022/03/05 11:27:15;;;;;;;14.05;8.80;;;;;;;1.62;100.00;100434.27;1657161;85;22680;-64